GÓRSKI RUNMAGEDDON HARDCORE KOCIERZ

Wydarzenie/ Event:
Organizator/ Organizer:
Extreme Events, Runmageddon
Data/ Date:
2018-10-21
Miejsce/ Place:
Kocierz
Dystans/ Distance:
21 km
Zgłoszonych/ Registered:
2632
Wystartowało/ Started:
2467
Nie ukończyło/ Not finished:
46
Ukończyło/ Finished:
2421
Na trasie/ On track:
40

Klasyfikacja/ Classiffication: 08:00

Wyniki nieoficjalne !!!
Pełne wyniki/ Full Results : PDF | CSV
Wyniki uproszczone/ Simple results : PDF | PDF2 | CSV
 
Klasyfikacje w punktach pomiarowych/ Classification for time points: 15km | Meta

Msc/ RnkZawodnik/ NameNumer/ BibKlub/ TeamMiejscowość/ CityKraj/ CountryKategoria/ CategoryMkat/ CatRnkK/M/ W/MSeria15kmCzas
netto
21km
Czas
brutto
21km
Różn/ GapTempo
min/km
Tempo
km/h
        
1RZĄDCA Marcin 2492Open Mężczyzn3M 608:0001:58:3403:17:31.3003:17:31.30 9:246.4
2TARKOWSKI Dawid 2380CROSSELITEOpen Mężczyzn27M 3608:0002:09:2003:35:59.4003:35:59.40+00:18:2810:175.8
3DEPTUŁA Mariusz 2399HUSARIA RACE TEAM Open Masters Mężczyzn7M 3808:0002:12:0003:37:44.7003:37:44.70+00:20:1310:225.8
4ŚMIAŁEK Łukasz 2362APTEKI ZDROWE CENYOpen Mężczyzn37M 4708:0002:09:1803:39:32.5503:39:32.55+00:22:0110:275.7
5PASON Tomasz 2486Open Mężczyzn38M 5008:0002:12:1903:39:47.8003:39:47.80+00:22:1610:275.7
6DĄBROWSKI Przemysław 4401HARDCOROWE WYCHYLYLYBYMYOpen Mężczyzn41M 5308:0002:08:3703:40:29.7003:40:29.70+00:22:5810:295.7
7HANUS Piotr 2361AGRESYWNE MORSY :DOpen Mężczyzn44M 5608:0002:12:1103:41:37.3003:41:37.30+00:24:0610:335.7
8PIĘTKA Marcin 3551HARDCOROWE WYCHYLYLYBYMYOpen Mężczyzn51M 6508:0002:12:0903:43:05.9503:43:05.95+00:25:3410:375.6
9CZACHURSKI Mateusz 2459XRUNNERSOpen Mężczyzn54M 6808:0002:06:5203:43:47.4003:43:47.40+00:26:1610:395.6
10BORECKI Tomasz 2463Open Mężczyzn63M 7908:0002:08:3703:46:47.3003:46:47.30+00:29:1610:475.6
11STEINKE Adam 2493Open Mężczyzn79M 10008:0002:19:2203:51:03.6503:51:03.65+00:33:3211:005.5
12KOPECKÝ Jakub 2470Open Mężczyzn87M 11008:0002:18:5103:52:14.1503:52:14.15+00:34:4211:035.4
13STANISŁAWSKI Fabian 2425POSITIVE FREAKS TEAMOpen Mężczyzn148M 18608:0002:23:3804:03:11.5504:03:11.55+00:45:4011:345.2
14WITEK Piotr 2419LIVER KILLEROpen Mężczyzn156M 19508:0002:23:1604:04:15.0504:04:15.05+00:46:4311:375.2
15RZĄDCA Grzegorz 2491Open Mężczyzn173M 21408:0002:26:2304:07:15.3004:07:15.30+00:49:4411:465.1
16GŁOGOWSKI Maciej 2464Open Mężczyzn177M 21808:0002:35:0504:07:37.2004:07:37.20+00:50:0511:475.1
17SZCZUKA Leszek 2379CROSSELITEOpen Masters Mężczyzn34M 23108:0002:30:4704:09:50.2504:09:50.25+00:52:1811:535
18STOJAK Arek 2391HARDCORYOpen Mężczyzn188M 23308:0002:37:4004:09:53.4004:09:53.40+00:52:2211:535
19PIĄTEK Dawid 2457WISS RUNNING TEAMOpen Mężczyzn226M 27708:0002:30:2304:14:20.1004:14:20.10+00:56:4812:065
20OBOZA Dawid 2456WISS RUNNING TEAMOpen Mężczyzn227M 27808:0002:30:3204:14:20.3004:14:20.30+00:56:4912:065
21JANDA Sebastian 2454WISS RUNNING TEAMOpen Masters Mężczyzn41M 27908:0002:30:3404:14:21.0504:14:21.05+00:56:4912:065
22STEINKE Damian 2494Open Mężczyzn237M 29008:0002:33:1004:15:18.4504:15:18.45+00:57:4712:094.9
23POPCZYŃSKI Krystian 2390HARDCORYOpen Masters Mężczyzn45M 31508:0002:37:4104:17:07.0504:17:07.05+00:59:3512:144.9
24BARTOŚ Marcin 2418KONIUCHY OCROpen Mężczyzn261M 31908:0002:35:2004:17:34.1504:17:34.15+01:00:0212:154.9
25MĘKAL Dariusz 2480Open Mężczyzn297M 36008:0002:33:4704:20:39.7004:20:39.70+01:03:0812:244.8
26PRUCHNIAK Wojciech 2411HUSARIA RACE TEAM Open Mężczyzn303M 36608:0002:39:5804:21:03.6004:21:03.60+01:03:3212:254.8
27ŻEBIAŁOWICZ - ŁACH Agnieszka 2369BEST BEASTSOpen Kobiet14K 1408:0002:39:5404:21:38.4504:21:38.45+01:04:0712:274.8
28MIESZCZAK Marcin 2294TURBO GUMISIEOpen Mężczyzn313M 37808:0002:28:0704:21:50.3004:21:50.30+01:04:1912:284.8
29PIASECKI Hubert 2488Open Mężczyzn326M 39408:0002:36:4004:22:24.5004:22:24.50+01:04:5312:294.8
30MATUSZCZAK Jakub 2406HUSARIA RACE TEAM Open Mężczyzn327M 39508:0002:36:4204:22:24.6004:22:24.60+01:04:5312:294.8
31ZMIJ Zbyszek 2443TRENER24H.COM.PLOpen Mężczyzn328M 39608:0002:26:1604:22:27.6004:22:27.60+01:04:5612:294.8
32ŻMIJ Wojciech 2442TRENER24H.COM.PLOpen Mężczyzn339M 41108:0002:31:4004:23:22.4504:23:22.45+01:05:5112:324.8
33ZAWADKA Arek 4402HARDCOROWE WYCHYLYLYBYMYOpen Mężczyzn342M 41408:0002:26:0404:23:37.9004:23:37.90+01:06:0612:334.8
34PYŻANOWSKI Mariusz 2489Open Mężczyzn372M 44908:0002:34:1804:25:34.8504:25:34.85+01:08:0312:384.7
35DEC Aleksandra 2439SPORTERA OCROpen Kobiet19K 2008:0002:38:4304:25:55.4504:25:55.45+01:08:2412:394.7
36ADAMIEC Tomasz 2460Open Mężczyzn379M 45908:0002:45:0604:25:57.0004:25:57.00+01:08:2512:394.7
37CHUDZIK Mariusz 2438SPORTERA OCROpen Mężczyzn380M 46008:0002:38:5204:25:57.3004:25:57.30+01:08:2612:394.7
38POPIOŁEK Magdalena 2213CROSSFIT URSUSOpen Kobiet22K 2408:0002:52:5304:28:16.4504:28:16.45+01:10:4512:464.7
39KOŁODZIEJ Andrzej 2469Open Mężczyzn419M 50708:0002:39:4104:29:24.0004:29:24.00+01:11:5212:494.7
40FEDEROWICZ Małgorzata 4333Open Kobiet23K 2508:0002:52:5504:29:28.7504:29:28.75+01:11:5712:494.7
41KRÓLAK Margarita 2239HUSARIA RACE TEAM Open Kobiet27K 2908:0002:41:2504:31:14.2004:31:14.20+01:13:4212:544.6
42SOBOTA Kamil 2986HUSARIA RACE TEAM Open Mężczyzn452M 54408:0002:41:2304:31:15.1004:31:15.10+01:13:4312:554.6
43MISIOR Łukasz 2221EXPERIENSOpen Mężczyzn465M 55908:0002:52:4504:32:43.7504:32:43.75+01:15:1212:594.6
44BITTNER Filip 2308Open Mężczyzn467M 56108:0002:51:3904:32:46.0004:32:46.00+01:15:1412:594.6
45BĘDKOWSKI Marcin 2462Open Mężczyzn523M 62808:0002:48:3404:36:24.4004:36:24.40+01:18:5313:094.6
46PRZYBYSZEWSKI Kamil 4640ASW SENSHIOpen Mężczyzn527M 63208:0002:45:2904:36:34.7504:36:34.75+01:19:0313:104.6
47NOWOSIELSKI Tomasz 2365ASW SENSHIOpen Mężczyzn528M 63308:0002:45:3204:36:37.3504:36:37.35+01:19:0613:104.6
48BOGDAŁ Krzysztof 2395HUSARIA RACE TEAM Open Mężczyzn544M 65408:0002:42:5704:37:47.7504:37:47.75+01:20:1613:134.5
49PIEKARCZYK Agata 2445WATAHA GRUPA TRENINGOWAOpen Kobiet44K 5108:0002:54:2604:40:21.8004:40:21.80+01:22:5013:214.5
50MOL Wojtek 2437SPEED RUNNERSOpen Mężczyzn611M 73408:0002:48:4004:42:33.2504:42:33.25+01:25:0113:274.5
51PIEKARCZYK Marcin 2446WATAHA GRUPA TRENINGOWAOpen Mężczyzn637M 76808:0002:54:2804:44:05.8004:44:05.80+01:26:3413:314.4
52ZIĘBA Łukasz 2417HUSARIA RACE TEAM Open Mężczyzn668M 80608:0002:41:3104:46:29.5004:46:29.50+01:28:5813:384.4
53LUTEREK Michał 2478Open Mężczyzn677M 81608:0002:48:0704:46:57.3504:46:57.35+01:29:2613:394.4
54DENHAM Justin 2741POWER TRAININGOpen Mężczyzn691M 83608:0002:53:1304:48:06.4504:48:06.45+01:30:3513:434.4
55WNOROWSKA Magdalena 2385DZIADY OCROpen Masters Kobiet11K 6908:0002:47:4204:48:10.0004:48:10.00+01:30:3813:434.4
56MOTOWIDEŁKO-PUSTELAK Iwona 2407HUSARIA RACE TEAM Open Kobiet62K 7408:0002:45:2804:48:44.9504:48:44.95+01:31:1313:444.4
57WALCZAK Julian 2355Open Mężczyzn710M 85508:0002:39:1204:48:52.0504:48:52.05+01:31:2013:454.4
58PRZESŁAŃSKI Mateusz 2420MIKAMIK CZEWAOpen Masters Mężczyzn131M 87708:0002:37:0404:49:38.4004:49:38.40+01:32:0713:474.4
59PAWLUKIEWICZ Aleksander 2487Open Masters Mężczyzn132M 88808:0002:42:5304:50:15.5004:50:15.50+01:32:4413:494.3
60WŁOCH Jakub 2534FIREEAGLESOpen Mężczyzn748M 89908:0002:57:3004:51:04.2004:51:04.20+01:33:3213:514.3
61DOBIJA Wojciech 2453WISS RUNNING TEAMOpen Mężczyzn749M 90008:0002:54:3104:51:09.4004:51:09.40+01:33:3813:514.3
62BOCZEK Rafał 2451WISS RUNNING TEAMOpen Mężczyzn757M 91008:0002:53:1704:51:28.0004:51:28.00+01:33:5613:524.3
63CHMURA Krzysztof 2613Open Mężczyzn762M 91508:0002:56:4004:51:49.2004:51:49.20+01:34:1713:534.3
64ZBIJOWSKI Marcin 2377CODEWISEOpen Mężczyzn763M 91608:0002:54:3504:51:52.8504:51:52.85+01:34:2113:534.3
65BULKA Lukasz 2450WISS RUNING TEAMOpen Mężczyzn765M 91808:0002:53:1504:51:58.3004:51:58.30+01:34:2713:544.3
66KOZLOWSKI Tomasz 2472Open Mężczyzn772M 92508:0002:54:5604:52:11.1004:52:11.10+01:34:3913:544.3
67MOKWA Sebastian 2368AWLOpen Mężczyzn774M 92808:0002:48:0104:52:21.5004:52:21.50+01:34:5013:554.3
68CHYLIŃSKI Bartek 2730NIE W SZCZEPIONKĘ TEAMOpen Mężczyzn788M 94408:0002:52:4304:52:51.5504:52:51.55+01:35:2013:564.3
69LIS Łukasz 2477Open Mężczyzn791M 94708:0002:57:2704:53:02.8504:53:02.85+01:35:3113:574.3
70SYLDATK Patryk 2496Open Mężczyzn819M 98208:0002:52:4904:54:56.2004:54:56.20+01:37:2414:024.3
71TARNOWSKI Kamil 2500Open Mężczyzn854M 102108:0003:00:0304:56:55.9504:56:55.95+01:39:2414:084.2
72WĄSOWICZ Magdalena 2415HUSARIA RACE TEAM Open Kobiet94K 10908:0002:57:3304:58:40.7004:58:40.70+01:41:0914:134.2
73MYKYTA Tomasz 2481Open Mężczyzn905M 108108:0003:00:3304:59:35.5004:59:35.50+01:42:0414:154.2
74GILARSKA Marta 2669BIEGOWE NYGUSYOpen Kobiet99K 11508:0003:18:2005:00:25.8505:00:25.85+01:42:5414:184.2
75GILARSKI Paweł 2371BIEGOWE NYGUSYOpen Masters Mężczyzn162M 110108:0003:17:0005:00:28.9005:00:28.90+01:42:5714:184.2
76PODCZASKA Sylwia 2808BESTIE OCR LEGIONOWOOpen Kobiet102K 11808:0003:10:4405:01:06.6505:01:06.65+01:43:3514:204.2
77RAK Cezary 2231HARDCOROWE WYCHYLYLYBYMYOpen Mężczyzn955M 114708:0003:07:0805:02:53.9505:02:53.95+01:45:2214:254.2
78ORDON Dorota 2383DRUŻYNA JEDNOROŻCAOpen Kobiet111K 12908:0003:16:5105:03:15.6005:03:15.60+01:45:4414:264.2
79URBAŃSKI Mikołaj 2503Open Mężczyzn964M 115708:0003:16:4805:03:17.6505:03:17.65+01:45:4614:264.2
80WŁODARSKI Dariusz 2381CROSSELITEOpen Mężczyzn998M 119708:0003:12:3105:05:35.0505:05:35.05+01:48:0314:334.1
81SZOSKA Sławomir 2520CROSSELITEOpen Masters Mężczyzn182M 120008:0003:12:3305:05:44.3505:05:44.35+01:48:1314:334.1
82WRYK Karol 4263CROSSELITEOpen Mężczyzn1006M 120808:0003:12:2905:05:58.0005:05:58.00+01:48:2614:344.1
83ABRYSZYŃSKA Karolina 2378CROSSELITEOpen Kobiet126K 14808:0003:12:3405:06:15.5005:06:15.50+01:48:4414:354.1
84NURZYŃSKI Piotr 2373BIEGOWE NYGUSYOpen Mężczyzn1035M 124308:0003:16:4205:07:02.4005:07:02.40+01:49:3114:374.1
85LIBERADZKA Elżbieta 2476Open Kobiet133K 15608:0003:03:4105:07:04.8505:07:04.85+01:49:3314:374.1
86GNIADEK Mateusz 2465Open Mężczyzn1047M 125708:0003:03:3905:07:43.9005:07:43.90+01:50:1214:394.1
87DĄBROWSKI Łukasz 2452WISS RUNNING TEAMOpen Mężczyzn1054M 126408:0003:16:1605:07:59.4005:07:59.40+01:50:2814:394.1
88MLECZKO Tomasz 2455WISS RUNNING TEAMOpen Masters Mężczyzn192M 126508:0003:16:1405:08:05.2505:08:05.25+01:50:3314:404.1
89GRZELAKOWSKA Agata 2382DRUŻYNA JEDNOROŻCAOpen Masters Kobiet29K 19108:0003:21:5305:13:09.5005:13:09.50+01:55:3814:544
90WYGLĄDAŁA Michał 2426PUMP SQUATOpen Mężczyzn1152M 137908:0003:22:2905:13:11.0005:13:11.00+01:55:3914:544
91SZYROKI Henryk 4442PEPPA RUNOpen Masters Mężczyzn209M 138008:0003:21:5705:13:11.0505:13:11.05+01:55:3914:544
92PAPIERNIAK Anna 2384DRUŻYNA JEDNOROŻCAOpen Kobiet163K 19208:0003:22:2705:13:11.9505:13:11.95+01:55:4014:544
93ZADĘCKA Ewa 2448WELLNESS & SPAOpen Kobiet170K 19908:0003:01:5605:13:55.5505:13:55.55+01:56:2414:564
94ZADĘCKI Piotr 2449WELLNESS & SPAOpen Mężczyzn1161M 138908:0003:01:5405:13:55.8005:13:55.80+01:56:2414:564
95WŁODARCZYK Jan 2416HUSARIA RACE TEAM Open Mężczyzn1163M 139108:0002:58:4305:14:08.7005:14:08.70+01:56:3714:574
96PALASZ Piotr 2429Q90 TEAMOpen Mężczyzn1168M 139708:0003:01:4505:14:21.8005:14:21.80+01:56:5014:584
97SZLĘZAK Mateusz 2497Open Mężczyzn1191M 142308:0003:07:1605:15:33.5505:15:33.55+01:58:0215:014
98GÓRAK Agnieszka 2387HARDCORYOpen Kobiet182K 21108:0003:03:5905:16:12.6505:16:12.65+01:58:4115:034
99BARAŃSKI Marcin 2386HARDCORYOpen Mężczyzn1201M 143608:0003:04:0105:16:13.6005:16:13.60+01:58:4215:034
100JAGIEŁŁO Michał 2388HARDCORYOpen Mężczyzn1244M 148408:0003:14:3205:18:37.2505:18:37.25+02:01:0515:104
101PAWLUKIEWICZ Dariusz 4072Open Mężczyzn1250M 149108:0003:11:1305:18:53.9005:18:53.90+02:01:2215:114
102SZOTA Łukasz 2498Open Mężczyzn1276M 152108:0003:23:0505:20:25.5505:20:25.55+02:02:5415:153.9
103NALEPKA Paweł 2483Open Masters Mężczyzn227M 152308:0003:23:4105:20:26.7005:20:26.70+02:02:5515:153.9
104NALEPKA Andrzej 2482Open Mężczyzn1278M 152408:0003:23:0205:20:27.6005:20:27.60+02:02:5615:153.9
105BORKOWSKI Damian 2431ROZBIEGAMY NOWY DWÓR Open Mężczyzn1286M 153308:0003:13:5805:21:02.3505:21:02.35+02:03:3115:173.9
106BAGNICKI Dariusz 2430ROZBIEGAMY NOWY DWÓR Open Masters Mężczyzn229M 153408:0003:14:0705:21:02.5505:21:02.55+02:03:3115:173.9
107WERKOWSKI Marek 2505Open Masters Mężczyzn234M 154908:0003:21:2005:22:18.5005:22:18.50+02:04:4715:203.9
108LISIECKI Rajmund 2372BIEGOWE NYGUSYOpen Masters Mężczyzn237M 156808:0003:16:1705:23:31.2005:23:31.20+02:05:5915:243.9
109ZASADOWSKA Justyna 2374BIEGOWE NYGUSYOpen Masters Kobiet33K 24408:0003:18:2705:23:31.2005:23:31.20+02:05:5915:243.9
110GOLIS Paweł 2466Open Mężczyzn1321M 158008:0003:20:1205:24:30.6005:24:30.60+02:06:5915:273.9
111KOZDÓJ Ewa 2471Open Masters Kobiet36K 25108:0003:18:5905:24:34.1005:24:34.10+02:07:0215:273.9
112ŁYSEK Tomasz 2479Open Masters Mężczyzn239M 158208:0003:18:5705:24:34.7005:24:34.70+02:07:0315:273.9
113GŁAZ Jacek 3126HUSARIA RACE TEAM Open Masters Mężczyzn247M 161408:0003:17:5905:26:56.1005:26:56.10+02:09:2415:343.9
114KANIA Paweł 2468Open Mężczyzn1348M 161708:0003:27:0805:27:02.6505:27:02.65+02:09:3115:343.9
115TKOCZ Katarzyna 2501Open Kobiet222K 26008:0003:27:0205:27:03.7505:27:03.75+02:09:3215:343.9
116BRYŁA Paweł 2392HRMAX TEAMOpen Mężczyzn1351M 162108:0003:19:3605:27:08.6505:27:08.65+02:09:3715:343.9
117MIŚTA Przemysław 2393HRMAX TEAMOpen Mężczyzn1355M 162508:0003:19:3805:27:17.4505:27:17.45+02:09:4615:353.8
118GARBADZKA Agata 2432RUNMAGEDDONOWE ŚWIRY Open Kobiet223K 26108:0003:16:0705:27:21.7505:27:21.75+02:09:5015:353.8
119WIECZOREK Dariusz 2507Open Mężczyzn1359M 162908:0002:51:0705:27:24.2005:27:24.20+02:09:5215:353.8
120CHABER Szymon 3738SPORTERA OCROpen Mężczyzn1364M 163508:0003:24:3205:27:54.5505:27:54.55+02:10:2315:363.8
121STOLIŃSKI Adrian 2440SPORTERA OCROpen Mężczyzn1365M 163608:0003:24:5105:27:55.8505:27:55.85+02:10:2415:363.8
122KAMIŃSKA Anna 4320SPORTERA OCROpen Kobiet226K 26508:0003:24:2805:27:56.3505:27:56.35+02:10:2515:363.8
123CZYŻEWSKI Bartłomiej 2363AROOOpen Mężczyzn1372M 164308:0003:06:1305:28:22.7005:28:22.70+02:10:5115:383.8
124SKOWROŃSKA Maja 2364AROOOpen Kobiet234K 27308:0003:06:5805:29:18.4505:29:18.45+02:11:4715:403.8
125SZURMIEJ Karolina 2499Open Kobiet236K 27608:0003:08:5305:29:58.9005:29:58.90+02:12:2715:423.8
126WERKOWSKA Maria 2504Open Kobiet246K 28708:0003:29:1105:33:12.6005:33:12.60+02:15:4115:523.8
127BAŁAMUT Marta 2394HUSARIA RACE TEAM Open Kobiet249K 29108:0003:12:2605:34:02.5505:34:02.55+02:16:3115:543.8
128ZIOMKA Malwina 4280HUSARIA RACE TEAM Open Kobiet253K 29708:0003:12:1905:34:39.3505:34:39.35+02:17:0815:563.8
129PETRYKOWSKI Jakub 2408HUSARIA RACE TEAM Open Mężczyzn1491M 179008:0003:04:0605:41:59.1505:41:59.15+02:24:2716:173.7
130KALNIUK Tomasz 2732NIE W SZCZEPIONKĘ TEAMOpen Mężczyzn1508M 181208:0003:44:0105:44:07.0005:44:07.00+02:26:3516:233.7
131IGNALSKA Oliwia 2375CARBON OCR RACING TEAMOpen Kobiet287K 33908:0003:29:1405:44:13.4005:44:13.40+02:26:4216:233.7
132WÓJCIK Bartosz 2376CARBON OCR RACING TEAMOpen Mężczyzn1509M 181408:0003:29:1205:44:15.2505:44:15.25+02:26:4316:233.7
133ASAULA Margaryta 2441STATSCOREOpen Kobiet288K 34008:0003:29:1605:44:15.5005:44:15.50+02:26:4416:233.7
134WITEK Paweł 2290SĄGORSI - RUNNING TEAMOpen Mężczyzn1514M 182008:0003:18:1505:45:02.6005:45:02.60+02:27:3116:253.7
135SŁODOWNIK Dominik 2289SĄGORSI - RUNNING TEAMOpen Mężczyzn1515M 182108:0003:18:2105:45:03.8505:45:03.85+02:27:3216:253.7
136ĆWIK Paulina 2284SĄGORSI - RUNNING TEAMOpen Kobiet290K 34208:0003:18:0505:45:04.1005:45:04.10+02:27:3216:253.7
137KACZMAREK Katarzyna 2286SĄGORSI - RUNNING TEAMOpen Kobiet291K 34308:0003:18:2305:45:04.9005:45:04.90+02:27:3316:253.7
138KOWALCZYK Ewa 2404HUSARIA RACE TEAM Open Kobiet295K 34708:0003:19:0705:46:13.3005:46:13.30+02:28:4216:293.6
139KOTARBA Piotr 2403HUSARIA RACE TEAM Open Mężczyzn1533M 184008:0003:19:0305:46:51.7005:46:51.70+02:29:2016:313.6
140LIPIEC Bartłomiej 2434RZUŁTE MORDYOpen Mężczyzn1542M 185308:0003:33:3305:49:26.4505:49:26.45+02:31:5516:383.6
141KURMAŃSKI Michał 2433RZUŁTE MORDYOpen Mężczyzn1552M 186308:0003:33:5205:49:45.8505:49:45.85+02:32:1416:393.6
142JURKOWSKI Marcin 2467Open Masters Mężczyzn290M 186608:0003:37:1705:51:07.6505:51:07.65+02:33:3616:433.6
143CHAIEB Natalia 2397HUSARIA RACE TEAM Open Kobiet310K 36308:0003:40:3005:51:23.1005:51:23.10+02:33:5116:433.6
144BUŁAWA Radosław 2396HUSARIA RACE TEAM Open Masters Mężczyzn291M 187008:0003:16:2205:51:28.7505:51:28.75+02:33:5716:443.6
145FILA Piotr 2400HUSARIA RACE TEAM Open Mężczyzn1558M 187108:0003:16:4105:51:28.7505:51:28.75+02:33:5716:443.6
146KOŁODZIEJ Tomek 2402HUSARIA RACE TEAM Open Mężczyzn1560M 187308:0003:16:3905:51:29.1505:51:29.15+02:33:5716:443.6
147CHAIEB Sebastian 2398HUSARIA RACE TEAM Open Mężczyzn1561M 187408:0003:40:3105:51:39.3005:51:39.30+02:34:0816:443.6
148MUCHA Robert 2370BESTIE OCR LEGIONOWOOpen Masters Mężczyzn294M 189408:0003:33:4205:54:29.6005:54:29.60+02:36:5816:523.6
149SZCZEPAŃSKI Marcin 4388BESTIE OCR LEGIONOWOOpen Mężczyzn1579M 189508:0003:33:3805:54:29.7505:54:29.75+02:36:5816:523.6
150PTAK Magda 4446RUNMAGEDDONOWE ŚWIRY Open Kobiet319K 37208:0003:34:2905:54:29.8005:54:29.80+02:36:5816:523.6
151OLECH Norbert 2444TYTANI WSB GLIWICEOpen Mężczyzn1593M 191308:0003:26:4105:55:29.0005:55:29.00+02:37:5716:553.5
152WALUŚ Sandra 2861LATAJĄCE GRYFYOpen Kobiet322K 37508:0003:26:4405:55:29.9005:55:29.90+02:37:5816:553.5
153MARZEC Paweł 2405HUSARIA RACE TEAM Open Mężczyzn1605M 192708:0003:21:1705:57:40.1505:57:40.15+02:40:0817:013.5
154MOL Paweł 2436SPEED RUNNERSOpen Mężczyzn1621M 194508:0003:29:5106:04:42.9006:04:42.90+02:47:1117:223.5
155CIEMAŁA Szczepan 2435SPEED RUNNERSOpen Mężczyzn1623M 194708:0003:29:2706:05:36.4506:05:36.45+02:48:0517:243.4
156KUBIAK Kaj 4581WOLF TEAMOpen Mężczyzn1624M 194808:0003:33:4106:05:54.7506:05:54.75+02:48:2317:253.4
157OSTAPIŃSKI Marek 2485Open Mężczyzn1646M 197708:0003:31:3306:25:12.1006:25:12.10+03:07:4018:203.3
158OSTAPIŃSKI Krzysiek 2484Open Mężczyzn1647M 197808:0003:31:3206:25:12.5006:25:12.50+03:07:4118:203.3
159MALINOWSKA Katarzyna 2270OBY NIE OSTATNIOpen Kobiet354K 41008:0003:49:5406:27:42.2506:27:42.25+03:10:1018:273.2
160MEINERT Jakub 2212CARBON OCR RACING TEAMOpen Mężczyzn1648M 197908:0003:49:1806:28:29.6506:28:29.65+03:10:5818:293.2
161CZYŻKOWSKI Łukasz 2731NIE W SZCZEPIONKĘ TEAMOpen Mężczyzn1664M 199908:0002:47:5507:43:32.1507:43:32.15+04:26:0022:042.7
162RAK Mirosław 2458WISS RUNNING TEAMOpen Mężczyzn1670M 201608:00   
KOSTRUBIEC Kamil 2389HARDCORYOpen Mężczyzn08:00 DNF DNF DNF--
Znaleziono 163 wynik(ów)